Sedona, AZ

12:16 AM MST on July 08, 2015 (GMT -0700)
Northview | | Change Station
CLOSE
Current Station
Personal Weather Station
Location: Sedona, AZ
Elevation: 4396 ft
Nearby Weather Stations

Elev 4396 ft 34.86 °N, 111.79 °W | Updated 11 seconds ago

Clear
Clear
66.6 °F
Feels Like 66.6 °F
N
1.6
Wind Variable Wind from NW
Gusts 3.8 mph

Today
High -- | Low -- °F
--% Chance of Precip.
Yesterday
High -- | Low -- °F
Precip. -- in
5:20 AM 7:43 PM
Waning Gibbous, 56% visible
Pressure 30.05 in
Visibility 10.0 miles
Clouds Clear
Dew Point 58 °F
Humidity 74%
Rainfall 0.00 in
Snow Depth Not available.
UV 0 out of 12
Pollen 3.50 out of 12
Air Quality Not available.
Flu Activity Not available.
METAR KSEZ 080655Z AUTO 06007KT 10SM CLR 21/10 A3005 RMK AO2

More Conditions Fewer Conditions

Pressure 30.05 in
Visibility 10.0 miles
Clouds Clear
Dew Point 58 °F
Humidity 74%
Rainfall 0.00 in
Snow Depth Not available.
UV 0 out of 12
Pollen 3.50 out of 12
Air Quality Not available.
Flu Activity Not available.
METAR KSEZ 080655Z AUTO 06007KT 10SM CLR 21/10 A3005 RMK AO2

More Conditions Fewer Conditions

10-Day Weather Forecast

×

Almanac

Astronomy

Jul. 08, 2015 Rise Set
Actual Time
Civil Twilight
Nautical Twilight
Astronomical Twilight
Moon
Length of Visible Light
Length of Day
Tomorrow will be .
, % of the Moon is Illuminated

Today's Extremes

State Highs State Lows

Community

WunderPhotos

Upload Photos

1,836,064 photos uploaded!

WunderBlogs® & News

Nearby

Air Quality

  Air Quality AQ Index Pollutant
Not available.

Snow Depth

Station Depth Elevation

Earthquake Activity

City Distance Mag. Time & Date
Minimum magnitude displayed is 2.5.

Coastal Water Temperatures

Place Temperature

Stations

Nearby Weather Stations

Station Location Temp. Windchill Dew Point Humidity Wind Precip. Elev Updated Type